sensor_id;sensor_type;location;lat;lon;timestamp;pressure;altitude;pressure_sealevel;temperature;humidity
73941;BME280;62294;48.554;10.202;2023-09-08T00:01:10;96034.25;;;11.45;100.00
73941;BME280;62294;48.554;10.202;2023-09-08T00:03:37;96020.69;;;11.46;100.00
73941;BME280;62294;48.554;10.202;2023-09-08T00:06:04;96020.25;;;11.49;100.00
73941;BME280;62294;48.554;10.202;2023-09-08T00:08:30;96022.25;;;11.54;100.00
73941;BME280;62294;48.554;10.202;2023-09-08T00:10:58;96023.66;;;11.56;100.00
73941;BME280;62294;48.554;10.202;2023-09-08T00:13:24;96020.50;;;11.59;100.00
73941;BME280;62294;48.554;10.202;2023-09-08T00:15:51;96023.06;;;11.54;100.00
73941;BME280;62294;48.554;10.202;2023-09-08T00:18:18;96031.72;;;11.50;100.00
73941;BME280;62294;48.554;10.202;2023-09-08T00:20:44;96032.16;;;11.47;100.00
73941;BME280;62294;48.554;10.202;2023-09-08T00:23:10;96031.94;;;11.48;100.00
73941;BME280;62294;48.554;10.202;2023-09-08T00:25:37;96025.44;;;11.44;100.00
73941;BME280;62294;48.554;10.202;2023-09-08T00:28:04;96023.31;;;11.34;100.00
73941;BME280;62294;48.554;10.202;2023-09-08T00:30:30;96027.09;;;11.27;100.00
73941;BME280;62294;48.554;10.202;2023-09-08T00:32:57;96021.78;;;11.27;100.00
73941;BME280;62294;48.554;10.202;2023-09-08T00:35:24;96021.16;;;11.25;100.00
73941;BME280;62294;48.554;10.202;2023-09-08T00:37:50;96019.66;;;11.17;100.00
73941;BME280;62294;48.554;10.202;2023-09-08T00:40:18;96016.75;;;11.19;100.00
73941;BME280;62294;48.554;10.202;2023-09-08T00:42:44;96015.25;;;11.23;100.00
73941;BME280;62294;48.554;10.202;2023-09-08T00:45:11;96019.19;;;11.20;100.00
73941;BME280;62294;48.554;10.202;2023-09-08T00:47:38;96019.78;;;11.22;100.00
73941;BME280;62294;48.554;10.202;2023-09-08T00:50:05;96015.44;;;11.10;100.00
73941;BME280;62294;48.554;10.202;2023-09-08T00:52:32;96019.19;;;11.02;100.00
73941;BME280;62294;48.554;10.202;2023-09-08T00:55:00;96013.13;;;10.95;100.00
73941;BME280;62294;48.554;10.202;2023-09-08T00:57:27;96017.75;;;10.88;100.00
73941;BME280;62294;48.554;10.202;2023-09-08T00:59:53;96005.69;;;10.86;100.00
73941;BME280;62294;48.554;10.202;2023-09-08T01:02:21;96007.97;;;10.82;100.00
73941;BME280;62294;48.554;10.202;2023-09-08T01:04:49;96008.56;;;10.84;100.00
73941;BME280;62294;48.554;10.202;2023-09-08T01:07:16;95997.81;;;10.79;100.00
73941;BME280;62294;48.554;10.202;2023-09-08T01:09:43;95999.84;;;10.77;100.00
73941;BME280;62294;48.554;10.202;2023-09-08T01:12:10;95998.00;;;10.78;100.00
73941;BME280;62294;48.554;10.202;2023-09-08T01:14:37;95996.41;;;10.77;100.00
73941;BME280;62294;48.554;10.202;2023-09-08T01:17:04;95993.94;;;10.75;100.00
73941;BME280;62294;48.554;10.202;2023-09-08T01:19:30;95985.75;;;10.77;100.00
73941;BME280;62294;48.554;10.202;2023-09-08T01:22:15;95980.44;;;10.77;100.00
73941;BME280;62294;48.554;10.202;2023-09-08T01:27:32;95977.88;;;10.70;100.00
73941;BME280;62294;48.554;10.202;2023-09-08T01:30:02;95989.66;;;10.74;100.00
73941;BME280;62294;48.554;10.202;2023-09-08T01:32:29;95992.16;;;10.69;100.00
73941;BME280;62294;48.554;10.202;2023-09-08T01:34:59;95991.44;;;10.62;100.00
73941;BME280;62294;48.554;10.202;2023-09-08T01:37:26;95991.66;;;10.60;100.00
73941;BME280;62294;48.554;10.202;2023-09-08T01:39:53;95992.44;;;10.61;100.00
73941;BME280;62294;48.554;10.202;2023-09-08T01:42:19;95990.25;;;10.58;100.00
73941;BME280;62294;48.554;10.202;2023-09-08T01:44:46;95988.84;;;10.55;100.00
73941;BME280;62294;48.554;10.202;2023-09-08T01:47:12;95979.47;;;10.53;100.00
73941;BME280;62294;48.554;10.202;2023-09-08T01:49:39;95974.97;;;10.53;100.00
73941;BME280;62294;48.554;10.202;2023-09-08T01:52:06;95982.13;;;10.53;100.00
73941;BME280;62294;48.554;10.202;2023-09-08T01:54:32;95978.28;;;10.49;100.00
73941;BME280;62294;48.554;10.202;2023-09-08T01:56:59;95978.06;;;10.50;100.00
73941;BME280;62294;48.554;10.202;2023-09-08T01:59:26;95978.81;;;10.57;100.00
73941;BME280;62294;48.554;10.202;2023-09-08T02:01:52;95983.28;;;10.57;100.00
73941;BME280;62294;48.554;10.202;2023-09-08T02:04:18;95992.38;;;10.49;100.00
73941;BME280;62294;48.554;10.202;2023-09-08T02:06:45;95989.94;;;10.48;100.00
73941;BME280;62294;48.554;10.202;2023-09-08T02:09:14;95996.50;;;10.45;100.00
73941;BME280;62294;48.554;10.202;2023-09-08T02:11:40;95988.59;;;10.39;100.00
73941;BME280;62294;48.554;10.202;2023-09-08T02:14:08;95992.13;;;10.33;100.00
73941;BME280;62294;48.554;10.202;2023-09-08T02:16:35;95985.41;;;10.30;100.00
73941;BME280;62294;48.554;10.202;2023-09-08T02:19:01;95984.13;;;10.15;100.00
73941;BME280;62294;48.554;10.202;2023-09-08T02:21:28;95985.91;;;10.21;100.00
73941;BME280;62294;48.554;10.202;2023-09-08T02:23:55;95984.81;;;10.28;100.00
73941;BME280;62294;48.554;10.202;2023-09-08T02:26:21;95984.81;;;10.28;100.00
73941;BME280;62294;48.554;10.202;2023-09-08T02:28:48;95986.22;;;10.31;100.00
73941;BME280;62294;48.554;10.202;2023-09-08T02:31:14;95986.50;;;10.23;100.00
73941;BME280;62294;48.554;10.202;2023-09-08T02:33:41;95978.91;;;10.26;100.00
73941;BME280;62294;48.554;10.202;2023-09-08T02:36:08;95976.97;;;10.15;100.00
73941;BME280;62294;48.554;10.202;2023-09-08T02:38:34;95985.38;;;10.12;100.00
73941;BME280;62294;48.554;10.202;2023-09-08T02:41:01;95982.47;;;10.14;100.00
73941;BME280;62294;48.554;10.202;2023-09-08T02:43:28;95975.56;;;10.13;100.00
73941;BME280;62294;48.554;10.202;2023-09-08T02:45:54;95978.09;;;10.01;100.00
73941;BME280;62294;48.554;10.202;2023-09-08T02:48:21;95973.84;;;9.93;100.00
73941;BME280;62294;48.554;10.202;2023-09-08T02:50:48;95973.09;;;9.86;100.00
73941;BME280;62294;48.554;10.202;2023-09-08T02:53:14;95977.75;;;9.91;100.00
73941;BME280;62294;48.554;10.202;2023-09-08T02:55:40;95970.19;;;9.94;100.00
73941;BME280;62294;48.554;10.202;2023-09-08T02:58:08;95971.72;;;10.02;100.00
73941;BME280;62294;48.554;10.202;2023-09-08T03:00:34;95972.47;;;10.09;100.00
73941;BME280;62294;48.554;10.202;2023-09-08T03:03:01;95969.78;;;10.16;100.00
73941;BME280;62294;48.554;10.202;2023-09-08T03:05:28;95974.19;;;10.04;100.00
73941;BME280;62294;48.554;10.202;2023-09-08T03:07:54;95976.50;;;9.93;100.00
73941;BME280;62294;48.554;10.202;2023-09-08T03:10:21;95975.47;;;9.94;100.00
73941;BME280;62294;48.554;10.202;2023-09-08T03:12:48;95971.91;;;9.82;100.00
73941;BME280;62294;48.554;10.202;2023-09-08T03:15:14;95971.31;;;9.80;100.00
73941;BME280;62294;48.554;10.202;2023-09-08T03:17:41;95970.72;;;9.78;100.00
73941;BME280;62294;48.554;10.202;2023-09-08T03:20:10;95964.41;;;9.73;100.00
73941;BME280;62294;48.554;10.202;2023-09-08T03:22:37;95968.47;;;9.75;100.00
73941;BME280;62294;48.554;10.202;2023-09-08T03:25:03;95964.03;;;9.69;100.00
73941;BME280;62294;48.554;10.202;2023-09-08T03:27:30;95973.44;;;9.65;100.00
73941;BME280;62294;48.554;10.202;2023-09-08T03:29:56;95963.88;;;9.64;100.00
73941;BME280;62294;48.554;10.202;2023-09-08T03:32:23;95960.63;;;9.62;100.00
73941;BME280;62294;48.554;10.202;2023-09-08T03:34:52;95957.50;;;9.65;100.00
73941;BME280;62294;48.554;10.202;2023-09-08T03:37:18;95962.63;;;9.67;100.00
73941;BME280;62294;48.554;10.202;2023-09-08T03:39:45;95966.53;;;9.64;100.00
73941;BME280;62294;48.554;10.202;2023-09-08T03:42:11;95959.97;;;9.67;100.00
73941;BME280;62294;48.554;10.202;2023-09-08T03:44:38;95967.88;;;9.73;100.00
73941;BME280;62294;48.554;10.202;2023-09-08T03:47:04;95958.09;;;9.74;100.00
73941;BME280;62294;48.554;10.202;2023-09-08T03:49:31;95962.41;;;9.68;100.00
73941;BME280;62294;48.554;10.202;2023-09-08T03:51:59;95966.09;;;9.67;100.00
73941;BME280;62294;48.554;10.202;2023-09-08T03:54:25;95965.06;;;9.68;100.00
73941;BME280;62294;48.554;10.202;2023-09-08T03:56:52;95965.75;;;9.57;100.00
73941;BME280;62294;48.554;10.202;2023-09-08T03:59:18;95977.13;;;9.64;100.00
73941;BME280;62294;48.554;10.202;2023-09-08T04:01:45;95975.50;;;9.63;100.00
73941;BME280;62294;48.554;10.202;2023-09-08T04:04:11;95974.47;;;9.64;100.00
73941;BME280;62294;48.554;10.202;2023-09-08T04:06:38;95976.59;;;9.56;100.00
73941;BME280;62294;48.554;10.202;2023-09-08T04:09:04;95976.19;;;9.52;100.00
73941;BME280;62294;48.554;10.202;2023-09-08T04:11:31;95979.44;;;9.54;100.00
73941;BME280;62294;48.554;10.202;2023-09-08T04:13:57;95979.88;;;9.51;100.00
73941;BME280;62294;48.554;10.202;2023-09-08T04:16:25;95983.78;;;9.49;100.00
73941;BME280;62294;48.554;10.202;2023-09-08T04:18:52;95984.88;;;9.35;100.00
73941;BME280;62294;48.554;10.202;2023-09-08T04:21:21;95985.09;;;9.33;100.00
73941;BME280;62294;48.554;10.202;2023-09-08T04:23:48;95981.66;;;9.26;100.00
73941;BME280;62294;48.554;10.202;2023-09-08T04:26:15;95985.09;;;9.26;100.00
73941;BME280;62294;48.554;10.202;2023-09-08T04:28:41;95987.16;;;9.24;100.00
73941;BME280;62294;48.554;10.202;2023-09-08T04:31:08;95987.56;;;9.28;100.00
73941;BME280;62294;48.554;10.202;2023-09-08T04:33:35;95983.25;;;9.27;100.00
73941;BME280;62294;48.554;10.202;2023-09-08T04:36:02;95978.38;;;9.31;100.00
73941;BME280;62294;48.554;10.202;2023-09-08T04:38:28;95978.16;;;9.32;100.00
73941;BME280;62294;48.554;10.202;2023-09-08T04:40:55;95983.44;;;9.32;100.00
73941;BME280;62294;48.554;10.202;2023-09-08T04:43:22;95982.25;;;9.28;100.00
73941;BME280;62294;48.554;10.202;2023-09-08T04:45:49;95991.81;;;9.29;100.00
73941;BME280;62294;48.554;10.202;2023-09-08T04:48:17;95994.47;;;9.29;100.00
73941;BME280;62294;48.554;10.202;2023-09-08T04:50:43;95994.91;;;9.26;100.00
73941;BME280;62294;48.554;10.202;2023-09-08T04:53:10;95995.75;;;9.20;100.00
73941;BME280;62294;48.554;10.202;2023-09-08T04:55:36;96004.78;;;9.12;100.00
73941;BME280;62294;48.554;10.202;2023-09-08T04:58:03;95992.34;;;9.06;100.00
73941;BME280;62294;48.554;10.202;2023-09-08T05:00:29;95999.91;;;9.03;100.00
73941;BME280;62294;48.554;10.202;2023-09-08T05:02:56;95994.16;;;9.12;100.00
73941;BME280;62294;48.554;10.202;2023-09-08T05:05:23;95992.09;;;9.21;100.00
73941;BME280;62294;48.554;10.202;2023-09-08T05:07:49;95999.78;;;9.29;100.00
73941;BME280;62294;48.554;10.202;2023-09-08T05:10:17;95993.78;;;9.40;100.00
73941;BME280;62294;48.554;10.202;2023-09-08T05:12:43;95979.09;;;9.44;100.00
73941;BME280;62294;48.554;10.202;2023-09-08T05:15:10;95994.84;;;9.39;100.00
73941;BME280;62294;48.554;10.202;2023-09-08T05:17:42;95990.31;;;9.46;100.00
73941;BME280;62294;48.554;10.202;2023-09-08T05:20:09;95983.72;;;9.55;100.00
73941;BME280;62294;48.554;10.202;2023-09-08T05:22:35;95992.50;;;9.56;100.00
73941;BME280;62294;48.554;10.202;2023-09-08T05:25:03;95979.38;;;9.61;100.00
73941;BME280;62294;48.554;10.202;2023-09-08T05:27:30;95993.66;;;9.66;100.00
73941;BME280;62294;48.554;10.202;2023-09-08T05:29:57;95995.66;;;9.71;100.00
73941;BME280;62294;48.554;10.202;2023-09-08T05:32:25;95998.69;;;9.74;100.00
73941;BME280;62294;48.554;10.202;2023-09-08T05:34:52;96000.31;;;9.75;100.00
73941;BME280;62294;48.554;10.202;2023-09-08T05:37:18;95994.16;;;9.81;100.00
73941;BME280;62294;48.554;10.202;2023-09-08T05:39:45;96004.94;;;9.86;100.00
73941;BME280;62294;48.554;10.202;2023-09-08T05:42:11;96004.69;;;9.94;100.00
73941;BME280;62294;48.554;10.202;2023-09-08T05:44:38;96005.44;;;10.02;100.00
73941;BME280;62294;48.554;10.202;2023-09-08T05:47:05;96003.72;;;10.14;100.00
73941;BME280;62294;48.554;10.202;2023-09-08T05:49:32;96009.38;;;10.24;100.00
73941;BME280;62294;48.554;10.202;2023-09-08T05:52:01;96011.56;;;10.27;100.00
73941;BME280;62294;48.554;10.202;2023-09-08T05:54:28;96016.22;;;10.38;100.00
73941;BME280;62294;48.554;10.202;2023-09-08T05:56:56;96008.38;;;10.43;100.00
73941;BME280;62294;48.554;10.202;2023-09-08T05:59:22;96014.44;;;10.50;100.00
73941;BME280;62294;48.554;10.202;2023-09-08T06:01:49;96023.19;;;10.75;100.00
73941;BME280;62294;48.554;10.202;2023-09-08T06:04:16;96016.53;;;10.84;100.00
73941;BME280;62294;48.554;10.202;2023-09-08T06:06:42;96018.75;;;11.05;100.00
73941;BME280;62294;48.554;10.202;2023-09-08T06:09:08;96014.19;;;11.12;100.00
73941;BME280;62294;48.554;10.202;2023-09-08T06:11:38;96012.56;;;11.41;100.00
73941;BME280;62294;48.554;10.202;2023-09-08T06:14:04;96005.00;;;12.27;100.00
73941;BME280;62294;48.554;10.202;2023-09-08T06:16:31;96000.16;;;13.62;100.00
73941;BME280;62294;48.554;10.202;2023-09-08T06:18:57;96005.25;;;14.91;100.00
73941;BME280;62294;48.554;10.202;2023-09-08T06:21:25;96029.84;;;16.55;100.00
73941;BME280;62294;48.554;10.202;2023-09-08T06:23:51;96080.81;;;16.86;100.00
73941;BME280;62294;48.554;10.202;2023-09-08T06:26:18;96111.53;;;17.84;100.00
73941;BME280;62294;48.554;10.202;2023-09-08T06:28:44;96140.31;;;18.96;100.00
73941;BME280;62294;48.554;10.202;2023-09-08T06:31:11;96172.88;;;19.65;100.00
73941;BME280;62294;48.554;10.202;2023-09-08T06:33:38;96188.00;;;20.50;100.00
73941;BME280;62294;48.554;10.202;2023-09-08T06:36:05;96218.19;;;21.11;100.00
73941;BME280;62294;48.554;10.202;2023-09-08T06:38:32;96242.31;;;21.36;100.00
73941;BME280;62294;48.554;10.202;2023-09-08T06:40:59;96262.19;;;22.41;100.00
73941;BME280;62294;48.554;10.202;2023-09-08T06:43:27;96275.53;;;22.62;100.00
73941;BME280;62294;48.554;10.202;2023-09-08T06:45:53;96294.94;;;22.92;100.00
73941;BME280;62294;48.554;10.202;2023-09-08T06:48:20;96302.38;;;23.61;100.00
73941;BME280;62294;48.554;10.202;2023-09-08T06:50:46;96335.56;;;24.55;100.00
73941;BME280;62294;48.554;10.202;2023-09-08T06:53:13;96340.66;;;24.29;100.00
73941;BME280;62294;48.554;10.202;2023-09-08T06:55:40;96360.38;;;24.48;100.00
73941;BME280;62294;48.554;10.202;2023-09-08T06:58:10;96373.75;;;25.18;100.00
73941;BME280;62294;48.554;10.202;2023-09-08T07:00:39;96374.63;;;25.41;100.00
73941;BME280;62294;48.554;10.202;2023-09-08T07:03:05;96385.91;;;25.97;100.00
73941;BME280;62294;48.554;10.202;2023-09-08T07:05:32;96385.91;;;26.63;100.00
73941;BME280;62294;48.554;10.202;2023-09-08T07:07:59;96388.59;;;26.55;100.00
73941;BME280;62294;48.554;10.202;2023-09-08T07:10:25;96393.47;;;26.66;100.00
73941;BME280;62294;48.554;10.202;2023-09-08T07:12:52;96406.16;;;27.02;100.00
73941;BME280;62294;48.554;10.202;2023-09-08T07:15:19;96413.41;;;27.46;100.00
73941;BME280;62294;48.554;10.202;2023-09-08T07:17:45;96407.63;;;27.38;100.00
73941;BME280;62294;48.554;10.202;2023-09-08T07:20:12;96422.16;;;27.73;100.00
73941;BME280;62294;48.554;10.202;2023-09-08T07:22:39;96416.41;;;27.83;100.00
73941;BME280;62294;48.554;10.202;2023-09-08T07:25:06;96428.50;;;28.34;100.00
73941;BME280;62294;48.554;10.202;2023-09-08T07:27:34;96417.38;;;28.56;100.00
73941;BME280;62294;48.554;10.202;2023-09-08T07:30:01;96419.00;;;28.40;100.00
73941;BME280;62294;48.554;10.202;2023-09-08T07:32:27;96427.50;;;28.30;100.00
73941;BME280;62294;48.554;10.202;2023-09-08T07:34:54;96428.16;;;28.44;100.00
73941;BME280;62294;48.554;10.202;2023-09-08T07:37:22;96424.25;;;27.76;100.00
73941;BME280;62294;48.554;10.202;2023-09-08T07:39:50;96425.44;;;28.61;100.00
73941;BME280;62294;48.554;10.202;2023-09-08T07:42:16;96430.22;;;28.64;100.00
73941;BME280;62294;48.554;10.202;2023-09-08T07:44:44;96432.31;;;27.81;100.00
73941;BME280;62294;48.554;10.202;2023-09-08T07:47:10;96438.19;;;27.49;100.00
73941;BME280;62294;48.554;10.202;2023-09-08T07:49:37;96434.66;;;27.18;100.00
73941;BME280;62294;48.554;10.202;2023-09-08T07:52:04;96439.91;;;28.44;100.00
73941;BME280;62294;48.554;10.202;2023-09-08T07:54:32;96440.34;;;28.55;100.00
73941;BME280;62294;48.554;10.202;2023-09-08T07:56:59;96441.63;;;29.38;100.00
73941;BME280;62294;48.554;10.202;2023-09-08T07:59:26;96434.22;;;30.17;100.00
73941;BME280;62294;48.554;10.202;2023-09-08T08:01:52;96440.69;;;29.25;100.00
73941;BME280;62294;48.554;10.202;2023-09-08T08:04:19;96436.75;;;29.43;100.00
73941;BME280;62294;48.554;10.202;2023-09-08T08:06:45;96435.34;;;29.67;100.00
73941;BME280;62294;48.554;10.202;2023-09-08T08:09:14;96438.13;;;29.58;100.00
73941;BME280;62294;48.554;10.202;2023-09-08T08:11:40;96434.41;;;29.63;100.00
73941;BME280;62294;48.554;10.202;2023-09-08T08:14:08;96435.44;;;30.49;100.00
73941;BME280;62294;48.554;10.202;2023-09-08T08:16:34;96449.56;;;27.12;100.00
73941;BME280;62294;48.554;10.202;2023-09-08T08:19:02;96431.97;;;28.86;100.00
73941;BME280;62294;48.554;10.202;2023-09-08T08:21:29;96427.63;;;28.93;100.00
73941;BME280;62294;48.554;10.202;2023-09-08T08:23:56;96443.53;;;27.32;100.00
73941;BME280;62294;48.554;10.202;2023-09-08T08:26:23;96437.41;;;26.21;100.00
73941;BME280;62294;48.554;10.202;2023-09-08T08:28:53;96435.06;;;27.98;100.00
73941;BME280;62294;48.554;10.202;2023-09-08T08:31:20;96433.78;;;28.56;100.00
73941;BME280;62294;48.554;10.202;2023-09-08T08:33:46;96427.25;;;29.03;100.00
73941;BME280;62294;48.554;10.202;2023-09-08T08:36:13;96424.44;;;29.29;100.00
73941;BME280;62294;48.554;10.202;2023-09-08T08:38:39;96425.56;;;28.82;100.00
73941;BME280;62294;48.554;10.202;2023-09-08T08:41:06;96428.81;;;29.13;100.00
73941;BME280;62294;48.554;10.202;2023-09-08T08:43:32;96428.09;;;30.00;100.00
73941;BME280;62294;48.554;10.202;2023-09-08T08:45:59;96428.09;;;30.41;100.00
73941;BME280;62294;48.554;10.202;2023-09-08T08:48:29;96425.69;;;31.05;100.00
73941;BME280;62294;48.554;10.202;2023-09-08T08:50:57;96417.16;;;32.03;100.00
73941;BME280;62294;48.554;10.202;2023-09-08T08:53:25;96414.97;;;32.37;100.00
73941;BME280;62294;48.554;10.202;2023-09-08T08:55:55;96426.28;;;30.78;100.00
73941;BME280;62294;48.554;10.202;2023-09-08T08:58:23;96431.53;;;30.71;100.00
73941;BME280;62294;48.554;10.202;2023-09-08T09:00:54;96412.78;;;31.30;100.00
73941;BME280;62294;48.554;10.202;2023-09-08T09:03:26;96434.03;;;29.73;100.00
73941;BME280;62294;48.554;10.202;2023-09-08T09:05:54;96421.38;;;30.83;100.00
73941;BME280;62294;48.554;10.202;2023-09-08T09:08:22;96413.75;;;32.22;100.00
73941;BME280;62294;48.554;10.202;2023-09-08T09:10:51;96431.00;;;29.66;100.00
73941;BME280;62294;48.554;10.202;2023-09-08T09:13:20;96421.78;;;30.61;100.00
73941;BME280;62294;48.554;10.202;2023-09-08T09:15:48;96425.13;;;30.46;100.00
73941;BME280;62294;48.554;10.202;2023-09-08T09:18:15;96419.78;;;30.29;100.00
73941;BME280;62294;48.554;10.202;2023-09-08T09:20:53;96440.81;;;26.70;100.00
73941;BME280;62294;48.554;10.202;2023-09-08T09:23:31;96422.66;;;27.92;100.00
73941;BME280;62294;48.554;10.202;2023-09-08T09:25:59;96417.25;;;30.03;100.00
73941;BME280;62294;48.554;10.202;2023-09-08T09:28:28;96423.66;;;28.65;100.00
73941;BME280;62294;48.554;10.202;2023-09-08T09:30:55;96419.59;;;29.64;100.00
73941;BME280;62294;48.554;10.202;2023-09-08T09:33:22;96412.97;;;30.89;100.00
73941;BME280;62294;48.554;10.202;2023-09-08T09:35:51;96406.28;;;30.03;100.00
73941;BME280;62294;48.554;10.202;2023-09-08T09:38:19;96412.56;;;30.04;100.00
73941;BME280;62294;48.554;10.202;2023-09-08T09:40:48;96407.41;;;30.76;100.00
73941;BME280;62294;48.554;10.202;2023-09-08T09:43:15;96412.66;;;30.28;100.00
73941;BME280;62294;48.554;10.202;2023-09-08T09:45:43;96416.44;;;31.34;100.00
73941;BME280;62294;48.554;10.202;2023-09-08T09:48:10;96413.66;;;30.32;100.00
73941;BME280;62294;48.554;10.202;2023-09-08T09:50:39;96403.75;;;31.29;100.00
73941;BME280;62294;48.554;10.202;2023-09-08T09:53:13;96413.50;;;30.08;100.00
73941;BME280;62294;48.554;10.202;2023-09-08T09:55:43;96424.34;;;29.46;100.00
73941;BME280;62294;48.554;10.202;2023-09-08T09:58:10;96410.25;;;31.13;100.00
73941;BME280;62294;48.554;10.202;2023-09-08T10:00:38;96407.78;;;31.44;100.00
73941;BME280;62294;48.554;10.202;2023-09-08T10:03:08;96403.41;;;31.19;100.00
73941;BME280;62294;48.554;10.202;2023-09-08T10:05:36;96415.31;;;31.47;100.00
73941;BME280;62294;48.554;10.202;2023-09-08T10:08:03;96417.03;;;31.27;100.00
73941;BME280;62294;48.554;10.202;2023-09-08T10:10:32;96415.53;;;31.30;100.00
73941;BME280;62294;48.554;10.202;2023-09-08T10:13:02;96427.09;;;29.00;100.00
73941;BME280;62294;48.554;10.202;2023-09-08T10:15:33;96428.84;;;27.41;100.00
73941;BME280;62294;48.554;10.202;2023-09-08T10:18:04;96415.81;;;26.46;100.00
73941;BME280;62294;48.554;10.202;2023-09-08T10:20:33;96417.25;;;28.01;100.00
73941;BME280;62294;48.554;10.202;2023-09-08T10:23:13;96407.09;;;30.04;100.00
73941;BME280;62294;48.554;10.202;2023-09-08T10:25:46;96392.72;;;32.42;100.00
73941;BME280;62294;48.554;10.202;2023-09-08T10:28:23;96397.56;;;31.81;100.00
73941;BME280;62294;48.554;10.202;2023-09-08T10:30:51;96384.84;;;32.83;100.00
73941;BME280;62294;48.554;10.202;2023-09-08T10:33:19;96379.91;;;33.36;100.00
73941;BME280;62294;48.554;10.202;2023-09-08T10:35:46;96378.44;;;32.95;100.00
73941;BME280;62294;48.554;10.202;2023-09-08T10:43:46;96405.91;;;27.60;100.00
73941;BME280;62294;48.554;10.202;2023-09-08T10:46:23;96392.94;;;28.68;100.00
73941;BME280;62294;48.554;10.202;2023-09-08T10:48:49;96391.19;;;30.39;100.00
73941;BME280;62294;48.554;10.202;2023-09-08T10:51:20;96376.41;;;31.57;100.00
73941;BME280;62294;48.554;10.202;2023-09-08T10:53:49;96373.44;;;32.54;100.00
73941;BME280;62294;48.554;10.202;2023-09-08T10:56:16;96360.53;;;33.83;100.00
73941;BME280;62294;48.554;10.202;2023-09-08T10:58:48;96376.63;;;31.76;100.00
73941;BME280;62294;48.554;10.202;2023-09-08T11:01:18;96384.69;;;30.55;100.00
73941;BME280;62294;48.554;10.202;2023-09-08T11:03:46;96392.38;;;30.08;100.00
73941;BME280;62294;48.554;10.202;2023-09-08T11:06:17;96386.63;;;30.01;100.00
73941;BME280;62294;48.554;10.202;2023-09-08T11:08:46;96378.72;;;31.43;100.00
73941;BME280;62294;48.554;10.202;2023-09-08T11:11:14;96378.72;;;31.55;100.00
73941;BME280;62294;48.554;10.202;2023-09-08T11:13:42;96398.56;;;29.09;100.00
73941;BME280;62294;48.554;10.202;2023-09-08T11:16:13;96389.22;;;29.10;100.00
73941;BME280;62294;48.554;10.202;2023-09-08T11:18:39;96390.22;;;28.17;100.00
73941;BME280;62294;48.554;10.202;2023-09-08T11:21:08;96377.66;;;28.41;100.00
73941;BME280;62294;48.554;10.202;2023-09-08T11:23:36;96384.69;;;27.48;100.00
73941;BME280;62294;48.554;10.202;2023-09-08T11:26:02;96374.47;;;28.05;100.00
73941;BME280;62294;48.554;10.202;2023-09-08T11:28:30;96372.84;;;30.63;100.00
73941;BME280;62294;48.554;10.202;2023-09-08T11:30:57;96375.59;;;29.60;100.00
73941;BME280;62294;48.554;10.202;2023-09-08T11:33:24;96377.63;;;30.54;100.00
73941;BME280;62294;48.554;10.202;2023-09-08T11:35:53;96355.84;;;32.31;100.00
73941;BME280;62294;48.554;10.202;2023-09-08T11:38:27;96369.06;;;31.73;100.00
73941;BME280;62294;48.554;10.202;2023-09-08T11:40:56;96374.47;;;30.64;100.00
73941;BME280;62294;48.554;10.202;2023-09-08T11:43:23;96371.69;;;30.52;100.00
73941;BME280;62294;48.554;10.202;2023-09-08T11:45:51;96373.97;;;30.62;100.00
73941;BME280;62294;48.554;10.202;2023-09-08T11:48:19;96367.41;;;28.93;100.00
73941;BME280;62294;48.554;10.202;2023-09-08T11:50:45;96365.44;;;30.64;100.00
73941;BME280;62294;48.554;10.202;2023-09-08T11:53:12;96375.53;;;29.98;100.00
73941;BME280;62294;48.554;10.202;2023-09-08T11:55:38;96362.34;;;29.71;100.00
73941;BME280;62294;48.554;10.202;2023-09-08T11:58:05;96362.00;;;31.60;100.00
73941;BME280;62294;48.554;10.202;2023-09-08T12:00:32;96352.50;;;32.65;100.00
73941;BME280;62294;48.554;10.202;2023-09-08T12:03:12;96350.53;;;32.65;100.00
73941;BME280;62294;48.554;10.202;2023-09-08T12:05:39;96350.78;;;33.19;100.00
73941;BME280;62294;48.554;10.202;2023-09-08T12:08:06;96337.53;;;34.29;100.00
73941;BME280;62294;48.554;10.202;2023-09-08T12:10:42;96344.97;;;35.09;100.00
73941;BME280;62294;48.554;10.202;2023-09-08T12:13:09;96341.28;;;34.02;100.00
73941;BME280;62294;48.554;10.202;2023-09-08T12:18:13;96355.47;;;31.16;100.00
73941;BME280;62294;48.554;10.202;2023-09-08T12:20:44;96358.97;;;31.77;100.00
73941;BME280;62294;48.554;10.202;2023-09-08T12:23:19;96358.00;;;32.65;100.00
73941;BME280;62294;48.554;10.202;2023-09-08T12:25:51;96339.44;;;32.77;100.00
73941;BME280;62294;48.554;10.202;2023-09-08T12:28:20;96351.44;;;32.42;100.00
73941;BME280;62294;48.554;10.202;2023-09-08T12:30:49;96343.44;;;32.80;100.00
73941;BME280;62294;48.554;10.202;2023-09-08T12:33:16;96338.56;;;33.86;100.00
73941;BME280;62294;48.554;10.202;2023-09-08T12:35:43;96333.72;;;33.99;100.00
73941;BME280;62294;48.554;10.202;2023-09-08T12:38:12;96339.22;;;33.14;100.00
73941;BME280;62294;48.554;10.202;2023-09-08T12:40:39;96362.91;;;31.28;100.00
73941;BME280;62294;48.554;10.202;2023-09-08T12:43:06;96355.38;;;29.73;100.00
73941;BME280;62294;48.554;10.202;2023-09-08T12:45:53;96356.38;;;29.69;100.00
73941;BME280;62294;48.554;10.202;2023-09-08T12:48:20;96343.69;;;28.68;100.00
73941;BME280;62294;48.554;10.202;2023-09-08T12:50:47;96335.16;;;28.52;100.00
73941;BME280;62294;48.554;10.202;2023-09-08T12:53:15;96330.91;;;28.80;100.00
73941;BME280;62294;48.554;10.202;2023-09-08T12:55:44;96331.41;;;29.20;100.00